Terminal Aerodrome Forecast
Issued by NWS Green Bay, WI

Home | Current Version | Previous Version | Graphics & Text | Print | Product List | Glossary On
Versions: 1 2 3 4 5 6 7 8 9 10 11 12 13 14 15 16 17 18 19
000
FTUS43 KGRB 270731 AAA
TAFGRB
TAF AMD
KGRB 270731Z 2708/2806 VRB03KT P6SM -RA SCT040 OVC080
     FM270900 VRB03KT 6SM -RA BR SCT025 OVC060
      TEMPO 2709/2712 3SM -TSRA BKN025CB
     FM271500 06009KT 5SM -SHRA BR BKN015
     FM272300 29007KT 6SM BR BKN010=

USA.gov is the U.S. government's official web portal to all federal, state and local government web resources and services.